createdAt,value
2023-01-28T00:01:54.134Z,100397.56
2023-01-28T00:04:21.519Z,100401.03
2023-01-28T00:06:48.267Z,100386.94
2023-01-28T00:09:15.045Z,100392.69
2023-01-28T00:11:42.340Z,100388.38
2023-01-28T00:14:11.753Z,100389.78
2023-01-28T00:16:38.619Z,100386.69
2023-01-28T00:19:05.456Z,100391.72
2023-01-28T00:21:32.183Z,100384.47
2023-01-28T00:23:59.007Z,100380.59
2023-01-28T00:26:26.039Z,100382.97
2023-01-28T00:28:52.855Z,100379.75
2023-01-28T00:31:22.730Z,100371.78
2023-01-28T00:33:51.179Z,100377.53
2023-01-28T00:36:19.400Z,100377.66
2023-01-28T00:38:57.879Z,100376.41
2023-01-28T00:41:27.637Z,100378.50
2023-01-28T00:43:55.072Z,100369.81
2023-01-28T00:46:23.483Z,100381.41
2023-01-28T00:48:50.241Z,100376.94
2023-01-28T00:51:17.988Z,100371.66
2023-01-28T00:53:44.867Z,100371.38
2023-01-28T00:56:14.843Z,100375.59
2023-01-28T00:58:42.884Z,100377.09
2023-01-28T01:01:14.649Z,100379.47
2023-01-28T01:03:41.721Z,100382.41
2023-01-28T01:06:09.039Z,100377.09
2023-01-28T01:08:35.974Z,100381.75
2023-01-28T01:11:04.053Z,100381.72
2023-01-28T01:13:32.738Z,100394.03
2023-01-28T01:16:06.538Z,100394.88
2023-01-28T01:18:34.562Z,100391.78
2023-01-28T01:21:02.708Z,100392.75
2023-01-28T01:23:31.258Z,100393.47
2023-01-28T01:25:57.948Z,100393.72
2023-01-28T01:28:24.869Z,100399.47
2023-01-28T01:31:10.835Z,100398.78
2023-01-28T01:33:37.618Z,100399.03
2023-01-28T01:36:04.424Z,100404.38
2023-01-28T01:38:31.491Z,100395.16
2023-01-28T01:41:00.112Z,100392.50
2023-01-28T01:43:56.955Z,100400.47
2023-01-28T01:46:38.558Z,100397.34
2023-01-28T01:49:13.562Z,100399.03
2023-01-28T01:51:40.629Z,100402.84
2023-01-28T01:54:09.066Z,100398.34
2023-01-28T01:56:41.298Z,100394.56
2023-01-28T02:01:40.018Z,100399.47
2023-01-28T02:06:41.321Z,100392.75
2023-01-28T02:09:13.564Z,100387.88
2023-01-28T02:11:40.305Z,100393.31
2023-01-28T02:14:07.658Z,100387.31
2023-01-28T02:16:34.463Z,100385.88
2023-01-28T02:19:01.890Z,100390.38
2023-01-28T02:21:47.355Z,100398.19
2023-01-28T02:24:51.395Z,100401.28
2023-01-28T02:27:30.303Z,100399.88
2023-01-28T02:30:10.367Z,100402.53
2023-01-28T02:32:46.230Z,100393.16
2023-01-28T02:35:14.020Z,100401.56
2023-01-28T02:37:48.036Z,100405.19
2023-01-28T02:40:29.954Z,100407.13
2023-01-28T02:42:59.726Z,100403.75
2023-01-28T02:45:51.845Z,100400.97
2023-01-28T02:48:22.263Z,100408.22
2023-01-28T02:51:05.627Z,100411.28
2023-01-28T02:53:44.412Z,100407.38
2023-01-28T02:56:13.576Z,100416.31
2023-01-28T02:59:14.563Z,100418.72
2023-01-28T03:01:49.608Z,100418.31
2023-01-28T03:04:27.140Z,100420.66
2023-01-28T03:06:58.854Z,100410.75
2023-01-28T03:09:27.417Z,100411.91
2023-01-28T03:12:14.583Z,100423.88
2023-01-28T03:15:01.917Z,100418.25
2023-01-28T03:18:11.733Z,100423.56
2023-01-28T03:27:08.866Z,100412.97
2023-01-28T03:29:55.409Z,100421.44
2023-01-28T03:32:41.992Z,100424.28
2023-01-28T03:35:14.796Z,100424.16
2023-01-28T03:37:41.725Z,100420.22
2023-01-28T03:40:09.338Z,100419.56
2023-01-28T03:42:39.311Z,100436.13
2023-01-28T03:45:08.615Z,100433.22
2023-01-28T03:47:40.640Z,100437.56
2023-01-28T03:50:07.651Z,100436.84
2023-01-28T03:52:34.497Z,100431.78
2023-01-28T03:57:39.410Z,100447.91
2023-01-28T04:00:07.959Z,100444.81
2023-01-28T04:02:35.637Z,100444.53
2023-01-28T04:05:07.219Z,100450.38
2023-01-28T04:07:33.968Z,100446.75
2023-01-28T04:10:02.187Z,100461.69
2023-01-28T04:12:32.056Z,100464.09
2023-01-28T04:15:02.212Z,100453.47
2023-01-28T04:17:28.850Z,100461.44
2023-01-28T04:19:58.383Z,100456.00
2023-01-28T04:22:25.080Z,100463.84
2023-01-28T04:24:52.004Z,100456.84
2023-01-28T04:27:19.229Z,100460.22
2023-01-28T04:29:50.007Z,100458.53
2023-01-28T04:32:16.652Z,100466.47
2023-01-28T04:34:43.356Z,100463.31
2023-01-28T04:37:09.995Z,100465.78
2023-01-28T04:39:36.668Z,100471.66
2023-01-28T04:42:03.588Z,100471.09
2023-01-28T04:44:30.218Z,100474.97
2023-01-28T04:46:56.995Z,100474.59
2023-01-28T04:49:23.904Z,100473.47
2023-01-28T04:51:50.667Z,100482.53
2023-01-28T04:54:20.938Z,100479.75
2023-01-28T04:56:47.745Z,100482.41
2023-01-28T04:59:14.627Z,100482.66
2023-01-28T05:01:41.414Z,100484.34
2023-01-28T05:04:08.750Z,100478.34
2023-01-28T05:06:35.723Z,100481.44
2023-01-28T05:09:02.381Z,100484.81
2023-01-28T05:11:29.079Z,100485.47
2023-01-28T05:13:55.773Z,100480.72
2023-01-28T05:16:23.898Z,100474.19
2023-01-28T05:18:53.905Z,100480.72
2023-01-28T05:21:20.571Z,100483.13
2023-01-28T05:23:47.285Z,100483.00
2023-01-28T05:26:14.190Z,100484.22
2023-01-28T05:28:40.806Z,100492.06
2023-01-28T05:31:07.741Z,100489.41
2023-01-28T05:33:34.542Z,100485.59
2023-01-28T05:36:01.225Z,100485.31
2023-01-28T05:38:28.652Z,100486.03
2023-01-28T05:40:55.303Z,100494.25
2023-01-28T05:43:22.537Z,100489.47
2023-01-28T05:45:49.320Z,100490.88
2023-01-28T05:48:16.401Z,100487.53
2023-01-28T05:50:43.567Z,100498.13
2023-01-28T05:53:11.339Z,100494.25
2023-01-28T05:55:38.070Z,100498.97
2023-01-28T05:58:04.738Z,100503.91
2023-01-28T06:00:31.427Z,100507.06
2023-01-28T06:02:58.115Z,100502.59
2023-01-28T06:05:24.859Z,100510.97
2023-01-28T06:07:55.842Z,100503.72
2023-01-28T06:10:23.010Z,100505.84
2023-01-28T06:12:49.706Z,100515.75
2023-01-28T06:15:16.796Z,100523.13
2023-01-28T06:17:43.875Z,100526.63
2023-01-28T06:20:11.939Z,100521.56
2023-01-28T06:22:38.586Z,100525.78
2023-01-28T06:25:05.988Z,100530.69
2023-01-28T06:27:32.808Z,100536.66
2023-01-28T06:29:59.484Z,100530.50
2023-01-28T06:32:26.284Z,100536.91
2023-01-28T06:34:56.087Z,100539.72
2023-01-28T06:37:25.228Z,100551.00
2023-01-28T06:39:52.893Z,100552.00
2023-01-28T06:42:19.595Z,100560.16
2023-01-28T06:44:46.255Z,100563.31
2023-01-28T06:47:14.683Z,100555.47
2023-01-28T06:49:43.821Z,100566.50
2023-01-28T06:52:10.512Z,100562.59
2023-01-28T06:54:37.934Z,100567.22
2023-01-28T06:57:05.089Z,100572.78
2023-01-28T06:59:31.810Z,100577.72
2023-01-28T07:01:58.470Z,100581.47
2023-01-28T07:04:25.359Z,100579.06
2023-01-28T07:06:52.011Z,100575.31
2023-01-28T07:09:18.643Z,100578.81
2023-01-28T07:11:45.317Z,100587.59
2023-01-28T07:14:12.206Z,100585.25
2023-01-28T07:16:38.880Z,100586.63
2023-01-28T07:19:05.587Z,100589.28
2023-01-28T07:21:32.246Z,100587.47
2023-01-28T07:23:59.484Z,100594.97
2023-01-28T07:26:26.778Z,100586.06
2023-01-28T07:28:53.420Z,100587.59
2023-01-28T07:31:20.233Z,100589.53
2023-01-28T07:33:47.179Z,100591.34
2023-01-28T07:36:13.741Z,100593.28
2023-01-28T07:38:40.517Z,100594.25
2023-01-28T07:41:07.528Z,100601.84
2023-01-28T07:43:34.168Z,100598.59
2023-01-28T07:46:02.119Z,100601.75
2023-01-28T07:48:29.065Z,100601.97
2023-01-28T07:51:00.105Z,100605.47
2023-01-28T07:53:26.778Z,100602.69
2023-01-28T07:55:59.614Z,100603.66
2023-01-28T07:58:26.499Z,100601.00
2023-01-28T08:00:56.942Z,100605.59
2023-01-28T08:03:23.917Z,100596.66
2023-01-28T08:05:56.384Z,100601.84
2023-01-28T08:08:24.411Z,100605.59
2023-01-28T08:10:51.764Z,100602.94
2023-01-28T08:13:18.950Z,100608.19
2023-01-28T08:15:46.834Z,100606.38
2023-01-28T08:18:13.804Z,100612.75
2023-01-28T08:20:45.727Z,100624.09
2023-01-28T08:23:14.676Z,100617.94
2023-01-28T08:25:41.708Z,100615.81
2023-01-28T08:28:09.429Z,100619.03
2023-01-28T08:30:38.982Z,100630.63
2023-01-28T08:33:08.423Z,100624.63
2023-01-28T08:35:36.021Z,100620.97
2023-01-28T08:38:05.034Z,100622.41
2023-01-28T08:40:32.241Z,100629.75
2023-01-28T08:42:59.063Z,100629.03
2023-01-28T08:45:28.049Z,100634.97
2023-01-28T08:48:00.951Z,100632.78
2023-01-28T08:50:32.692Z,100640.03
2023-01-28T08:53:02.647Z,100634.97
2023-01-28T08:55:30.279Z,100638.94
2023-01-28T08:57:58.675Z,100645.06
2023-01-28T09:00:25.818Z,100646.28
2023-01-28T09:02:53.503Z,100650.03
2023-01-28T09:05:21.357Z,100641.69
2023-01-28T09:07:49.044Z,100635.25
2023-01-28T09:10:20.630Z,100641.69
2023-01-28T09:12:47.394Z,100641.97
2023-01-28T09:15:14.147Z,100651.56
2023-01-28T09:17:42.099Z,100647.22
2023-01-28T09:20:09.545Z,100645.91
2023-01-28T09:22:36.322Z,100653.97
2023-01-28T09:25:03.031Z,100659.94
2023-01-28T09:27:29.723Z,100665.34
2023-01-28T09:29:56.350Z,100664.41
2023-01-28T09:32:24.699Z,100662.31
2023-01-28T09:34:51.494Z,100663.28
2023-01-28T09:37:18.802Z,100676.28
2023-01-28T09:39:45.818Z,100678.00
2023-01-28T09:42:13.814Z,100677.50
2023-01-28T09:45:00.910Z,100678.75
2023-01-28T09:47:43.648Z,100682.88
2023-01-28T09:50:14.181Z,100689.81
2023-01-28T09:52:42.327Z,100678.69
2023-01-28T09:55:14.757Z,100679.19
2023-01-28T09:57:48.124Z,100681.91
2023-01-28T10:00:17.794Z,100680.78
2023-01-28T10:03:14.803Z,100684.25
2023-01-28T10:06:00.628Z,100688.00
2023-01-28T10:09:00.983Z,100685.59
2023-01-28T10:11:42.190Z,100694.47
2023-01-28T10:14:14.774Z,100685.53
2023-01-28T10:16:55.742Z,100689.81
2023-01-28T10:19:30.688Z,100688.56
2023-01-28T10:22:05.901Z,100691.94
2023-01-28T10:24:41.826Z,100694.72
2023-01-28T10:27:14.791Z,100685.38
2023-01-28T10:29:44.287Z,100684.41
2023-01-28T10:32:17.712Z,100682.41
2023-01-28T10:34:44.421Z,100688.06
2023-01-28T10:37:14.809Z,100681.91
2023-01-28T10:39:41.779Z,100684.53
2023-01-28T10:42:14.877Z,100679.59
2023-01-28T10:44:44.673Z,100685.91
2023-01-28T10:47:13.913Z,100687.47
2023-01-28T10:49:55.465Z,100692.91
2023-01-28T10:52:23.461Z,100688.44
2023-01-28T10:55:02.883Z,100696.28
2023-01-28T10:57:29.709Z,100696.09
2023-01-28T10:59:56.437Z,100694.22
2023-01-28T11:02:37.399Z,100704.84
2023-01-28T11:05:15.737Z,100705.50
2023-01-28T11:07:42.926Z,100710.41
2023-01-28T11:10:15.254Z,100711.91
2023-01-28T11:12:42.183Z,100715.66
2023-01-28T11:15:15.067Z,100713.97
2023-01-28T11:17:53.117Z,100712.91
2023-01-28T11:20:24.603Z,100712.00
2023-01-28T11:22:51.868Z,100721.84
2023-01-28T11:25:26.612Z,100717.38
2023-01-28T11:27:54.504Z,100716.91
2023-01-28T11:30:23.166Z,100716.28
2023-01-28T11:33:06.538Z,100726.28
2023-01-28T11:35:33.458Z,100716.38
2023-01-28T11:38:01.176Z,100721.31
2023-01-28T11:40:28.349Z,100728.53
2023-01-28T11:42:58.519Z,100727.19
2023-01-28T11:46:08.836Z,100724.53
2023-01-28T11:49:14.887Z,100719.63
2023-01-28T11:51:58.995Z,100716.59
2023-01-28T11:54:46.956Z,100700.66
2023-01-28T11:57:14.948Z,100708.44
2023-01-28T12:00:16.619Z,100708.63
2023-01-28T12:03:14.827Z,100703.94
2023-01-28T12:05:52.870Z,100700.09
2023-01-28T12:08:44.070Z,100700.97
2023-01-28T12:11:14.790Z,100698.00
2023-01-28T12:14:10.645Z,100703.78
2023-01-28T12:17:05.411Z,100693.00
2023-01-28T12:20:02.765Z,100696.47
2023-01-28T12:22:37.379Z,100694.19
2023-01-28T12:25:15.941Z,100686.59
2023-01-28T12:27:51.925Z,100684.78
2023-01-28T12:30:40.225Z,100688.81
2023-01-28T12:33:17.279Z,100688.47
2023-01-28T12:36:07.398Z,100692.59
2023-01-28T12:38:40.644Z,100691.88
2023-01-28T12:41:13.886Z,100685.75
2023-01-28T12:43:50.362Z,100677.00
2023-01-28T12:46:27.682Z,100683.53
2023-01-28T12:49:05.916Z,100679.53
2023-01-28T12:51:53.342Z,100677.72
2023-01-28T12:54:53.934Z,100676.00
2023-01-28T12:57:32.714Z,100676.16
2023-01-28T13:03:15.063Z,100674.81
2023-01-28T13:05:51.270Z,100679.81
2023-01-28T13:08:23.779Z,100676.91
2023-01-28T13:10:53.159Z,100676.84
2023-01-28T13:13:42.566Z,100677.09
2023-01-28T13:16:10.839Z,100681.31
2023-01-28T13:18:40.221Z,100687.63
2023-01-28T13:21:14.988Z,100688.56
2023-01-28T13:23:49.626Z,100689.78
2023-01-28T13:26:19.356Z,100691.47
2023-01-28T13:28:51.271Z,100694.13
2023-01-28T13:31:24.241Z,100681.03
2023-01-28T13:33:54.153Z,100690.81
2023-01-28T13:36:30.255Z,100684.97
2023-01-28T13:39:08.762Z,100688.81
2023-01-28T13:41:54.224Z,100686.66
2023-01-28T13:44:30.222Z,100681.09
2023-01-28T13:47:12.349Z,100689.72
2023-01-28T13:49:42.168Z,100696.97
2023-01-28T13:52:11.690Z,100700.59
2023-01-28T13:54:46.682Z,100710.38
2023-01-28T13:57:15.004Z,100719.34
2023-01-28T14:03:10.129Z,100725.84
2023-01-28T14:05:45.944Z,100731.44
2023-01-28T14:08:14.891Z,100733.97
2023-01-28T14:11:10.616Z,100735.66
2023-01-28T14:13:55.599Z,100734.66
2023-01-28T14:16:38.655Z,100731.56
2023-01-28T14:19:06.638Z,100739.50
2023-01-28T14:21:36.252Z,100759.28
2023-01-28T14:24:03.633Z,100752.03
2023-01-28T14:26:36.752Z,100755.06
2023-01-28T14:29:03.526Z,100759.75
2023-01-28T14:31:38.500Z,100751.69
2023-01-28T14:34:14.968Z,100762.88
2023-01-28T14:36:44.642Z,100768.56
2023-01-28T14:39:15.045Z,100771.47
2023-01-28T14:41:45.005Z,100765.66
2023-01-28T14:44:14.915Z,100772.78
2023-01-28T14:46:52.868Z,100770.22
2023-01-28T14:49:22.501Z,100772.31
2023-01-28T14:54:55.694Z,100780.22
2023-01-28T14:57:36.887Z,100772.03
2023-01-28T15:00:08.331Z,100766.75
2023-01-28T15:02:43.679Z,100775.41
2023-01-28T15:05:13.938Z,100786.84
2023-01-28T15:07:45.512Z,100789.88
2023-01-28T15:10:14.139Z,100787.69
2023-01-28T15:12:44.994Z,100784.09
2023-01-28T15:17:39.465Z,100778.28
2023-01-28T15:20:08.528Z,100782.13
2023-01-28T15:22:35.558Z,100783.00
2023-01-28T15:25:06.607Z,100777.34
2023-01-28T15:27:33.740Z,100785.66
2023-01-28T15:30:00.801Z,100786.03
2023-01-28T15:32:30.470Z,100780.34
2023-01-28T15:35:01.009Z,100768.66
2023-01-28T15:37:27.821Z,100777.09
2023-01-28T15:40:05.991Z,100767.72
2023-01-28T15:42:33.163Z,100769.03
2023-01-28T15:45:04.628Z,100762.88
2023-01-28T15:47:34.184Z,100759.28
2023-01-28T15:50:06.117Z,100761.69
2023-01-28T15:52:38.372Z,100764.94
2023-01-28T15:55:08.176Z,100752.88
2023-01-28T15:57:36.936Z,100764.31
2023-01-28T16:00:06.488Z,100754.91
2023-01-28T16:02:33.560Z,100761.66
2023-01-28T16:05:08.094Z,100769.41
2023-01-28T16:07:45.207Z,100763.34
2023-01-28T16:10:14.035Z,100772.16
2023-01-28T16:12:41.214Z,100771.81
2023-01-28T16:15:16.985Z,100768.88
2023-01-28T16:17:50.290Z,100763.13
2023-01-28T16:20:26.722Z,100763.13
2023-01-28T16:23:05.638Z,100756.09
2023-01-28T16:25:39.461Z,100762.16
2023-01-28T16:28:15.099Z,100766.00
2023-01-28T16:30:41.911Z,100761.41
2023-01-28T16:33:16.054Z,100766.97
2023-01-28T16:36:04.474Z,100779.25
2023-01-28T16:38:32.859Z,100780.22
2023-01-28T16:40:59.795Z,100788.91
2023-01-28T16:43:27.394Z,100789.50
2023-01-28T16:45:54.084Z,100791.97
2023-01-28T16:48:21.027Z,100790.78
2023-01-28T16:50:47.729Z,100787.28
2023-01-28T16:53:28.576Z,100787.22
2023-01-28T16:55:55.792Z,100781.91
2023-01-28T16:58:26.233Z,100776.69
2023-01-28T17:00:53.468Z,100785.13
2023-01-28T17:03:20.307Z,100785.50
2023-01-28T17:05:47.235Z,100790.94
2023-01-28T17:08:15.519Z,100800.22
2023-01-28T17:10:42.492Z,100788.91
2023-01-28T17:13:09.477Z,100786.66
2023-01-28T17:15:36.626Z,100787.91
2023-01-28T17:18:03.490Z,100793.66
2023-01-28T17:20:30.171Z,100791.00
2023-01-28T17:22:57.806Z,100805.94
2023-01-28T17:25:24.565Z,100806.88
2023-01-28T17:27:51.293Z,100811.47
2023-01-28T17:30:21.035Z,100811.25
2023-01-28T17:32:47.775Z,100814.00
2023-01-28T17:35:15.949Z,100807.50
2023-01-28T17:37:43.551Z,100818.31
2023-01-28T17:42:39.509Z,100823.22
2023-01-28T17:45:06.686Z,100822.94
2023-01-28T17:47:33.669Z,100823.97
2023-01-28T17:50:03.124Z,100842.28
2023-01-28T17:52:31.292Z,100849.28
2023-01-28T17:55:02.069Z,100848.09
2023-01-28T18:00:17.167Z,100849.28
2023-01-28T18:02:50.313Z,100844.41
2023-01-28T18:05:17.530Z,100857.94
2023-01-28T18:07:45.949Z,100853.72
2023-01-28T18:10:15.053Z,100849.38
2023-01-28T18:12:41.756Z,100849.50
2023-01-28T18:15:11.152Z,100848.25
2023-01-28T18:17:38.071Z,100860.75
2023-01-28T18:20:07.226Z,100864.16
2023-01-28T18:22:34.286Z,100856.19
2023-01-28T18:25:01.189Z,100860.75
2023-01-28T18:27:28.168Z,100857.31
2023-01-28T18:29:55.107Z,100846.56
2023-01-28T18:32:22.455Z,100850.06
2023-01-28T18:34:49.132Z,100846.56
2023-01-28T18:37:16.070Z,100847.53
2023-01-28T18:39:44.415Z,100836.41
2023-01-28T18:42:11.645Z,100842.97
2023-01-28T18:44:38.454Z,100841.25
2023-01-28T18:47:05.419Z,100853.38
2023-01-28T18:49:32.218Z,100854.22
2023-01-28T18:51:59.573Z,100854.22
2023-01-28T18:54:28.194Z,100847.72
2023-01-28T18:56:55.569Z,100857.34
2023-01-28T18:59:23.017Z,100851.94
2023-01-28T19:01:49.999Z,100856.84
2023-01-28T19:04:19.059Z,100840.94
2023-01-28T19:06:47.562Z,100845.78
2023-01-28T19:09:18.262Z,100853.00
2023-01-28T19:11:45.836Z,100853.75
2023-01-28T19:14:14.479Z,100872.28
2023-01-28T19:16:42.200Z,100876.63
2023-01-28T19:19:12.417Z,100888.38
2023-01-28T19:21:39.495Z,100900.69
2023-01-28T19:24:12.113Z,100909.78
2023-01-28T19:26:39.317Z,100912.31
2023-01-28T19:29:10.796Z,100904.38
2023-01-28T19:31:39.358Z,100896.94
2023-01-28T19:34:07.291Z,100906.81
2023-01-28T19:36:34.955Z,100920.03
2023-01-28T19:39:04.825Z,100920.81
2023-01-28T19:41:35.399Z,100935.00
2023-01-28T19:44:03.220Z,100935.22
2023-01-28T19:46:30.514Z,100943.16
2023-01-28T19:48:57.763Z,100941.47
2023-01-28T19:51:25.320Z,100939.34
2023-01-28T19:53:54.123Z,100941.56
2023-01-28T19:56:30.793Z,100939.13
2023-01-28T19:58:57.849Z,100930.13
2023-01-28T20:01:30.270Z,100936.91
2023-01-28T20:04:00.312Z,100938.06
2023-01-28T20:06:29.982Z,100936.38
2023-01-28T20:09:01.913Z,100938.41
2023-01-28T20:11:29.100Z,100943.09
2023-01-28T20:13:56.202Z,100936.09
2023-01-28T20:16:30.575Z,100950.50
2023-01-28T20:19:05.711Z,100958.03
2023-01-28T20:21:34.644Z,100957.91
2023-01-28T20:24:02.999Z,100953.16
2023-01-28T20:26:39.606Z,100953.03
2023-01-28T20:29:09.688Z,100968.28
2023-01-28T20:31:38.485Z,100962.78
2023-01-28T20:34:06.847Z,100952.63
2023-01-28T20:36:33.711Z,100943.50
2023-01-28T20:39:00.541Z,100939.38
2023-01-28T20:41:27.672Z,100936.97
2023-01-28T20:43:55.536Z,100945.84
2023-01-28T20:49:03.588Z,100951.66
2023-01-28T20:51:35.521Z,100948.41
2023-01-28T20:54:02.771Z,100939.50
2023-01-28T20:56:31.292Z,100948.19
2023-01-28T20:59:05.931Z,100953.91
2023-01-28T21:01:35.574Z,100948.28
2023-01-28T21:04:03.259Z,100935.47
2023-01-28T21:06:30.181Z,100944.09
2023-01-28T21:08:57.373Z,100956.44
2023-01-28T21:11:26.328Z,100954.94
2023-01-28T21:13:53.967Z,100963.84
2023-01-28T21:16:21.012Z,100961.50
2023-01-28T21:18:47.790Z,100951.88
2023-01-28T21:21:19.199Z,100945.63
2023-01-28T21:23:46.230Z,100943.75
2023-01-28T21:26:13.086Z,100946.06
2023-01-28T21:28:39.772Z,100961.84
2023-01-28T21:31:25.471Z,100976.03
2023-01-28T21:33:57.832Z,100962.91
2023-01-28T21:36:25.611Z,100961.94
2023-01-28T21:38:57.309Z,100967.22
2023-01-28T21:41:25.456Z,100960.66
2023-01-28T21:43:53.944Z,100959.41
2023-01-28T21:46:22.270Z,100966.72
2023-01-28T21:48:49.189Z,100972.22
2023-01-28T21:51:34.286Z,100962.81
2023-01-28T21:54:01.140Z,100969.16
2023-01-28T21:56:33.689Z,100973.19
2023-01-28T21:59:19.283Z,100960.91
2023-01-28T22:01:46.398Z,100962.56
2023-01-28T22:04:13.874Z,100955.81
2023-01-28T22:06:42.402Z,100955.81
2023-01-28T22:09:14.192Z,100952.63
2023-01-28T22:11:43.448Z,100943.97
2023-01-28T22:14:10.843Z,100951.50
2023-01-28T22:16:37.847Z,100940.47
2023-01-28T22:19:04.869Z,100944.16
2023-01-28T22:21:31.753Z,100942.25
2023-01-28T22:23:58.548Z,100942.38
2023-01-28T22:26:25.428Z,100943.94
2023-01-28T22:28:52.194Z,100947.75
2023-01-28T22:31:18.974Z,100942.47
2023-01-28T22:33:46.333Z,100940.97
2023-01-28T22:36:15.880Z,100932.53
2023-01-28T22:38:44.453Z,100929.59
2023-01-28T22:41:19.363Z,100929.91
2023-01-28T22:43:47.235Z,100920.47
2023-01-28T22:46:14.821Z,100911.91
2023-01-28T22:48:41.825Z,100916.69
2023-01-28T22:51:18.370Z,100925.31
2023-01-28T22:53:47.267Z,100924.19
2023-01-28T22:56:15.416Z,100915.94
2023-01-28T22:58:42.443Z,100920.38
2023-01-28T23:01:09.435Z,100920.06
2023-01-28T23:06:04.931Z,100923.03
2023-01-28T23:08:33.606Z,100916.03
2023-01-28T23:11:02.756Z,100924.06
2023-01-28T23:16:20.917Z,100919.84
2023-01-28T23:19:06.094Z,100916.03
2023-01-28T23:21:38.179Z,100919.22
2023-01-28T23:24:21.560Z,100916.78
2023-01-28T23:26:56.513Z,100923.22
2023-01-28T23:29:25.440Z,100915.81
2023-01-28T23:32:01.267Z,100917.97
2023-01-28T23:34:38.274Z,100922.06
2023-01-28T23:37:07.250Z,100918.06
2023-01-28T23:39:34.360Z,100923.88
2023-01-28T23:42:18.450Z,100928.31
2023-01-28T23:44:45.180Z,100929.19
2023-01-28T23:47:12.043Z,100929.38
2023-01-28T23:49:39.493Z,100918.81
2023-01-28T23:52:07.980Z,100929.38
2023-01-28T23:54:34.755Z,100925.03
2023-01-28T23:57:02.908Z,100918.81
2023-01-28T23:59:29.756Z,100933.19
